sensor_id;sensor_type;location;lat;lon;timestamp;temperature;humidity
3069;DHT22;1545;51.728;8.796;2023-09-07T00:00:26;18.20;84.80
3069;DHT22;1545;51.728;8.796;2023-09-07T00:02:52;18.20;84.90
3069;DHT22;1545;51.728;8.796;2023-09-07T00:05:17;18.10;84.90
3069;DHT22;1545;51.728;8.796;2023-09-07T00:07:43;18.00;84.90
3069;DHT22;1545;51.728;8.796;2023-09-07T00:10:09;18.10;84.80
3069;DHT22;1545;51.728;8.796;2023-09-07T00:12:34;17.90;85.30
3069;DHT22;1545;51.728;8.796;2023-09-07T00:15:00;17.90;85.80
3069;DHT22;1545;51.728;8.796;2023-09-07T00:17:26;17.90;85.50
3069;DHT22;1545;51.728;8.796;2023-09-07T00:19:51;17.90;85.20
3069;DHT22;1545;51.728;8.796;2023-09-07T00:22:17;18.00;85.00
3069;DHT22;1545;51.728;8.796;2023-09-07T00:24:43;18.00;84.60
3069;DHT22;1545;51.728;8.796;2023-09-07T00:27:09;18.10;84.50
3069;DHT22;1545;51.728;8.796;2023-09-07T00:29:37;18.00;84.50
3069;DHT22;1545;51.728;8.796;2023-09-07T00:32:03;17.90;84.80
3069;DHT22;1545;51.728;8.796;2023-09-07T00:34:29;17.80;85.10
3069;DHT22;1545;51.728;8.796;2023-09-07T00:36:54;17.80;84.80
3069;DHT22;1545;51.728;8.796;2023-09-07T00:39:20;17.90;84.70
3069;DHT22;1545;51.728;8.796;2023-09-07T00:41:45;17.90;84.70
3069;DHT22;1545;51.728;8.796;2023-09-07T00:44:11;17.90;84.20
3069;DHT22;1545;51.728;8.796;2023-09-07T00:46:36;17.90;84.40
3069;DHT22;1545;51.728;8.796;2023-09-07T00:49:02;17.80;84.50
3069;DHT22;1545;51.728;8.796;2023-09-07T00:51:30;17.90;84.20
3069;DHT22;1545;51.728;8.796;2023-09-07T00:53:55;18.00;84.20
3069;DHT22;1545;51.728;8.796;2023-09-07T00:56:21;18.00;84.30
3069;DHT22;1545;51.728;8.796;2023-09-07T00:58:47;18.10;83.70
3069;DHT22;1545;51.728;8.796;2023-09-07T01:01:13;18.10;83.90
3069;DHT22;1545;51.728;8.796;2023-09-07T01:03:38;18.10;84.00
3069;DHT22;1545;51.728;8.796;2023-09-07T01:06:12;18.10;83.50
3069;DHT22;1545;51.728;8.796;2023-09-07T01:08:49;18.00;84.10
3069;DHT22;1545;51.728;8.796;2023-09-07T01:11:18;18.00;84.20
3069;DHT22;1545;51.728;8.796;2023-09-07T01:13:45;17.90;84.50
3069;DHT22;1545;51.728;8.796;2023-09-07T01:16:12;18.10;83.90
3069;DHT22;1545;51.728;8.796;2023-09-07T01:18:39;18.10;83.60
3069;DHT22;1545;51.728;8.796;2023-09-07T01:21:08;18.00;83.90
3069;DHT22;1545;51.728;8.796;2023-09-07T01:23:41;18.00;83.70
3069;DHT22;1545;51.728;8.796;2023-09-07T01:26:08;18.00;84.10
3069;DHT22;1545;51.728;8.796;2023-09-07T01:28:34;17.90;84.20
3069;DHT22;1545;51.728;8.796;2023-09-07T01:31:01;17.90;84.40
3069;DHT22;1545;51.728;8.796;2023-09-07T01:33:29;17.80;84.40
3069;DHT22;1545;51.728;8.796;2023-09-07T01:35:55;17.80;84.80
3069;DHT22;1545;51.728;8.796;2023-09-07T01:38:21;17.80;84.80
3069;DHT22;1545;51.728;8.796;2023-09-07T01:40:46;17.70;85.00
3069;DHT22;1545;51.728;8.796;2023-09-07T01:43:13;17.60;85.10
3069;DHT22;1545;51.728;8.796;2023-09-07T01:45:38;17.60;85.30
3069;DHT22;1545;51.728;8.796;2023-09-07T01:48:08;17.40;85.30
3069;DHT22;1545;51.728;8.796;2023-09-07T01:50:33;17.40;85.60
3069;DHT22;1545;51.728;8.796;2023-09-07T01:52:59;17.30;85.50
3069;DHT22;1545;51.728;8.796;2023-09-07T01:55:27;17.20;85.90
3069;DHT22;1545;51.728;8.796;2023-09-07T01:57:52;17.10;86.70
3069;DHT22;1545;51.728;8.796;2023-09-07T02:00:18;17.00;87.40
3069;DHT22;1545;51.728;8.796;2023-09-07T02:02:43;16.90;87.80
3069;DHT22;1545;51.728;8.796;2023-09-07T02:05:09;16.90;88.20
3069;DHT22;1545;51.728;8.796;2023-09-07T02:07:34;16.90;87.50
3069;DHT22;1545;51.728;8.796;2023-09-07T02:10:01;16.90;88.10
3069;DHT22;1545;51.728;8.796;2023-09-07T02:12:28;16.90;88.00
3069;DHT22;1545;51.728;8.796;2023-09-07T02:14:54;17.00;87.10
3069;DHT22;1545;51.728;8.796;2023-09-07T02:17:19;17.00;86.70
3069;DHT22;1545;51.728;8.796;2023-09-07T02:19:46;17.20;86.20
3069;DHT22;1545;51.728;8.796;2023-09-07T02:22:11;17.30;86.10
3069;DHT22;1545;51.728;8.796;2023-09-07T02:24:37;17.30;85.90
3069;DHT22;1545;51.728;8.796;2023-09-07T02:27:03;17.30;86.30
3069;DHT22;1545;51.728;8.796;2023-09-07T02:29:28;17.30;86.30
3069;DHT22;1545;51.728;8.796;2023-09-07T02:31:54;17.20;86.50
3069;DHT22;1545;51.728;8.796;2023-09-07T02:34:19;17.40;85.60
3069;DHT22;1545;51.728;8.796;2023-09-07T02:36:45;17.50;85.60
3069;DHT22;1545;51.728;8.796;2023-09-07T02:39:11;17.60;85.70
3069;DHT22;1545;51.728;8.796;2023-09-07T02:41:37;17.60;85.30
3069;DHT22;1545;51.728;8.796;2023-09-07T02:44:03;17.80;85.10
3069;DHT22;1545;51.728;8.796;2023-09-07T02:46:29;17.90;84.80
3069;DHT22;1545;51.728;8.796;2023-09-07T02:48:56;18.10;84.40
3069;DHT22;1545;51.728;8.796;2023-09-07T02:51:23;18.40;83.30
3069;DHT22;1545;51.728;8.796;2023-09-07T02:53:49;18.50;83.50
3069;DHT22;1545;51.728;8.796;2023-09-07T02:56:15;18.50;83.10
3069;DHT22;1545;51.728;8.796;2023-09-07T02:58:41;18.50;82.90
3069;DHT22;1545;51.728;8.796;2023-09-07T03:01:07;18.50;82.90
3069;DHT22;1545;51.728;8.796;2023-09-07T03:03:35;18.60;83.00
3069;DHT22;1545;51.728;8.796;2023-09-07T03:06:28;18.60;82.90
3069;DHT22;1545;51.728;8.796;2023-09-07T03:08:53;18.70;82.80
3069;DHT22;1545;51.728;8.796;2023-09-07T03:11:19;18.70;82.90
3069;DHT22;1545;51.728;8.796;2023-09-07T03:13:44;18.70;83.00
3069;DHT22;1545;51.728;8.796;2023-09-07T03:16:10;18.70;83.20
3069;DHT22;1545;51.728;8.796;2023-09-07T03:18:36;18.70;83.20
3069;DHT22;1545;51.728;8.796;2023-09-07T03:21:02;18.70;83.10
3069;DHT22;1545;51.728;8.796;2023-09-07T03:23:32;18.70;83.00
3069;DHT22;1545;51.728;8.796;2023-09-07T03:25:58;18.60;83.30
3069;DHT22;1545;51.728;8.796;2023-09-07T03:28:24;18.60;83.50
3069;DHT22;1545;51.728;8.796;2023-09-07T03:30:56;18.50;83.60
3069;DHT22;1545;51.728;8.796;2023-09-07T03:33:22;18.50;83.60
3069;DHT22;1545;51.728;8.796;2023-09-07T03:35:48;18.60;83.40
3069;DHT22;1545;51.728;8.796;2023-09-07T03:38:13;18.60;83.10
3069;DHT22;1545;51.728;8.796;2023-09-07T03:40:39;18.80;82.80
3069;DHT22;1545;51.728;8.796;2023-09-07T03:43:04;18.70;82.80
3069;DHT22;1545;51.728;8.796;2023-09-07T03:45:30;18.70;82.90
3069;DHT22;1545;51.728;8.796;2023-09-07T03:47:56;18.70;82.70
3069;DHT22;1545;51.728;8.796;2023-09-07T03:50:21;18.70;83.00
3069;DHT22;1545;51.728;8.796;2023-09-07T03:52:47;18.60;83.10
3069;DHT22;1545;51.728;8.796;2023-09-07T03:55:13;18.60;83.00
3069;DHT22;1545;51.728;8.796;2023-09-07T03:57:38;18.60;83.20
3069;DHT22;1545;51.728;8.796;2023-09-07T04:00:04;18.50;83.20
3069;DHT22;1545;51.728;8.796;2023-09-07T04:02:33;18.50;83.50
3069;DHT22;1545;51.728;8.796;2023-09-07T04:04:59;18.50;83.60
3069;DHT22;1545;51.728;8.796;2023-09-07T04:07:27;18.30;84.20
3069;DHT22;1545;51.728;8.796;2023-09-07T04:09:52;18.20;84.40
3069;DHT22;1545;51.728;8.796;2023-09-07T04:12:18;18.10;84.60
3069;DHT22;1545;51.728;8.796;2023-09-07T04:14:43;18.10;84.90
3069;DHT22;1545;51.728;8.796;2023-09-07T04:17:10;18.10;85.00
3069;DHT22;1545;51.728;8.796;2023-09-07T04:19:35;18.10;84.70
3069;DHT22;1545;51.728;8.796;2023-09-07T04:22:01;18.10;84.80
3069;DHT22;1545;51.728;8.796;2023-09-07T04:24:27;18.00;84.80
3069;DHT22;1545;51.728;8.796;2023-09-07T04:26:53;18.00;84.70
3069;DHT22;1545;51.728;8.796;2023-09-07T04:29:18;18.00;84.90
3069;DHT22;1545;51.728;8.796;2023-09-07T04:31:44;17.90;85.00
3069;DHT22;1545;51.728;8.796;2023-09-07T04:34:09;17.90;85.30
3069;DHT22;1545;51.728;8.796;2023-09-07T04:36:35;17.90;85.40
3069;DHT22;1545;51.728;8.796;2023-09-07T04:39:01;17.90;85.30
3069;DHT22;1545;51.728;8.796;2023-09-07T04:41:28;17.80;85.30
3069;DHT22;1545;51.728;8.796;2023-09-07T04:43:54;17.80;85.50
3069;DHT22;1545;51.728;8.796;2023-09-07T04:46:21;17.80;85.40
3069;DHT22;1545;51.728;8.796;2023-09-07T04:48:47;17.90;85.30
3069;DHT22;1545;51.728;8.796;2023-09-07T04:51:13;17.90;85.20
3069;DHT22;1545;51.728;8.796;2023-09-07T04:53:39;17.80;85.40
3069;DHT22;1545;51.728;8.796;2023-09-07T04:56:06;17.80;85.60
3069;DHT22;1545;51.728;8.796;2023-09-07T04:58:32;17.70;85.60
3069;DHT22;1545;51.728;8.796;2023-09-07T05:01:05;17.70;85.80
3069;DHT22;1545;51.728;8.796;2023-09-07T05:03:31;17.70;86.00
3069;DHT22;1545;51.728;8.796;2023-09-07T05:05:57;17.70;86.00
3069;DHT22;1545;51.728;8.796;2023-09-07T05:08:23;17.70;85.70
3069;DHT22;1545;51.728;8.796;2023-09-07T05:11:01;17.80;85.50
3069;DHT22;1545;51.728;8.796;2023-09-07T05:13:28;17.80;85.70
3069;DHT22;1545;51.728;8.796;2023-09-07T05:15:54;17.70;85.70
3069;DHT22;1545;51.728;8.796;2023-09-07T05:18:21;17.70;85.70
3069;DHT22;1545;51.728;8.796;2023-09-07T05:20:48;17.80;85.60
3069;DHT22;1545;51.728;8.796;2023-09-07T05:23:20;17.80;85.30
3069;DHT22;1545;51.728;8.796;2023-09-07T05:25:48;17.90;85.30
3069;DHT22;1545;51.728;8.796;2023-09-07T05:28:15;17.90;85.40
3069;DHT22;1545;51.728;8.796;2023-09-07T05:30:41;17.90;85.10
3069;DHT22;1545;51.728;8.796;2023-09-07T05:33:08;18.00;84.90
3069;DHT22;1545;51.728;8.796;2023-09-07T05:35:34;18.10;84.30
3069;DHT22;1545;51.728;8.796;2023-09-07T05:37:59;18.30;83.90
3069;DHT22;1545;51.728;8.796;2023-09-07T05:40:25;18.40;83.60
3069;DHT22;1545;51.728;8.796;2023-09-07T05:42:50;18.40;83.40
3069;DHT22;1545;51.728;8.796;2023-09-07T05:45:16;18.40;83.40
3069;DHT22;1545;51.728;8.796;2023-09-07T05:47:41;18.50;83.30
3069;DHT22;1545;51.728;8.796;2023-09-07T05:50:07;18.60;83.20
3069;DHT22;1545;51.728;8.796;2023-09-07T05:52:33;18.60;83.20
3069;DHT22;1545;51.728;8.796;2023-09-07T05:54:58;18.60;83.10
3069;DHT22;1545;51.728;8.796;2023-09-07T05:57:24;18.60;83.40
3069;DHT22;1545;51.728;8.796;2023-09-07T05:59:49;18.60;83.20
3069;DHT22;1545;51.728;8.796;2023-09-07T06:02:15;18.80;82.90
3069;DHT22;1545;51.728;8.796;2023-09-07T06:04:40;18.80;82.80
3069;DHT22;1545;51.728;8.796;2023-09-07T06:07:06;18.90;82.80
3069;DHT22;1545;51.728;8.796;2023-09-07T06:09:31;18.90;83.00
3069;DHT22;1545;51.728;8.796;2023-09-07T06:11:57;19.00;82.50
3069;DHT22;1545;51.728;8.796;2023-09-07T06:14:22;19.00;82.70
3069;DHT22;1545;51.728;8.796;2023-09-07T06:16:48;19.10;82.70
3069;DHT22;1545;51.728;8.796;2023-09-07T06:19:13;19.10;82.50
3069;DHT22;1545;51.728;8.796;2023-09-07T06:21:39;19.20;82.90
3069;DHT22;1545;51.728;8.796;2023-09-07T06:24:05;19.20;82.80
3069;DHT22;1545;51.728;8.796;2023-09-07T06:26:32;19.30;82.90
3069;DHT22;1545;51.728;8.796;2023-09-07T06:28:57;19.30;82.70
3069;DHT22;1545;51.728;8.796;2023-09-07T06:31:23;19.40;82.70
3069;DHT22;1545;51.728;8.796;2023-09-07T06:33:48;19.50;82.40
3069;DHT22;1545;51.728;8.796;2023-09-07T06:36:14;19.60;81.80
3069;DHT22;1545;51.728;8.796;2023-09-07T06:38:40;19.80;81.00
3069;DHT22;1545;51.728;8.796;2023-09-07T06:41:05;19.90;80.50
3069;DHT22;1545;51.728;8.796;2023-09-07T06:43:33;20.00;80.10
3069;DHT22;1545;51.728;8.796;2023-09-07T06:46:08;20.10;80.60
3069;DHT22;1545;51.728;8.796;2023-09-07T06:48:35;20.20;80.30
3069;DHT22;1545;51.728;8.796;2023-09-07T06:51:04;20.30;79.60
3069;DHT22;1545;51.728;8.796;2023-09-07T06:53:31;20.30;79.60
3069;DHT22;1545;51.728;8.796;2023-09-07T06:56:00;20.50;79.60
3069;DHT22;1545;51.728;8.796;2023-09-07T06:58:25;20.50;79.90
3069;DHT22;1545;51.728;8.796;2023-09-07T07:00:52;20.60;79.40
3069;DHT22;1545;51.728;8.796;2023-09-07T07:03:18;20.80;78.90
3069;DHT22;1545;51.728;8.796;2023-09-07T07:05:43;20.90;78.70
3069;DHT22;1545;51.728;8.796;2023-09-07T07:08:09;21.00;78.20
3069;DHT22;1545;51.728;8.796;2023-09-07T07:10:35;21.10;78.30
3069;DHT22;1545;51.728;8.796;2023-09-07T07:13:01;21.10;78.40
3069;DHT22;1545;51.728;8.796;2023-09-07T07:15:26;21.30;79.00
3069;DHT22;1545;51.728;8.796;2023-09-07T07:17:52;21.30;79.00
3069;DHT22;1545;51.728;8.796;2023-09-07T07:20:17;21.40;77.50
3069;DHT22;1545;51.728;8.796;2023-09-07T07:22:43;21.50;77.20
3069;DHT22;1545;51.728;8.796;2023-09-07T07:25:08;21.60;77.30
3069;DHT22;1545;51.728;8.796;2023-09-07T07:27:35;21.80;77.30
3069;DHT22;1545;51.728;8.796;2023-09-07T07:30:01;22.00;76.30
3069;DHT22;1545;51.728;8.796;2023-09-07T07:32:27;22.10;76.40
3069;DHT22;1545;51.728;8.796;2023-09-07T07:34:52;22.20;76.30
3069;DHT22;1545;51.728;8.796;2023-09-07T07:37:18;22.40;76.20
3069;DHT22;1545;51.728;8.796;2023-09-07T07:39:43;22.50;75.30
3069;DHT22;1545;51.728;8.796;2023-09-07T07:42:09;22.70;75.30
3069;DHT22;1545;51.728;8.796;2023-09-07T07:44:34;23.00;73.50
3069;DHT22;1545;51.728;8.796;2023-09-07T07:47:00;23.30;73.80
3069;DHT22;1545;51.728;8.796;2023-09-07T07:49:25;23.90;73.20
3069;DHT22;1545;51.728;8.796;2023-09-07T07:51:52;24.70;72.10
3069;DHT22;1545;51.728;8.796;2023-09-07T07:54:20;25.40;69.40
3069;DHT22;1545;51.728;8.796;2023-09-07T07:56:48;25.90;68.90
3069;DHT22;1545;51.728;8.796;2023-09-07T07:59:13;26.50;66.90
3069;DHT22;1545;51.728;8.796;2023-09-07T08:01:39;26.60;66.20
3069;DHT22;1545;51.728;8.796;2023-09-07T08:04:05;26.90;65.30
3069;DHT22;1545;51.728;8.796;2023-09-07T08:06:32;27.30;65.90
3069;DHT22;1545;51.728;8.796;2023-09-07T08:08:57;27.80;63.40
3069;DHT22;1545;51.728;8.796;2023-09-07T08:11:23;28.20;62.30
3069;DHT22;1545;51.728;8.796;2023-09-07T08:13:49;28.70;61.70
3069;DHT22;1545;51.728;8.796;2023-09-07T08:16:15;28.90;62.00
3069;DHT22;1545;51.728;8.796;2023-09-07T08:18:41;29.10;60.30
3069;DHT22;1545;51.728;8.796;2023-09-07T08:21:06;29.20;60.00
3069;DHT22;1545;51.728;8.796;2023-09-07T08:23:32;29.30;60.60
3069;DHT22;1545;51.728;8.796;2023-09-07T08:25:57;29.30;59.60
3069;DHT22;1545;51.728;8.796;2023-09-07T08:28:24;29.40;60.70
3069;DHT22;1545;51.728;8.796;2023-09-07T08:30:51;29.40;60.10
3069;DHT22;1545;51.728;8.796;2023-09-07T08:33:19;29.50;59.10
3069;DHT22;1545;51.728;8.796;2023-09-07T08:35:44;29.70;58.60
3069;DHT22;1545;51.728;8.796;2023-09-07T08:38:11;29.90;59.30
3069;DHT22;1545;51.728;8.796;2023-09-07T08:40:38;29.80;59.70
3069;DHT22;1545;51.728;8.796;2023-09-07T08:43:09;29.90;59.10
3069;DHT22;1545;51.728;8.796;2023-09-07T08:45:41;30.10;58.30
3069;DHT22;1545;51.728;8.796;2023-09-07T08:48:09;30.20;58.20
3069;DHT22;1545;51.728;8.796;2023-09-07T08:50:35;30.10;58.60
3069;DHT22;1545;51.728;8.796;2023-09-07T08:53:03;30.10;58.40
3069;DHT22;1545;51.728;8.796;2023-09-07T08:55:29;30.30;57.70
3069;DHT22;1545;51.728;8.796;2023-09-07T08:57:56;30.70;58.10
3069;DHT22;1545;51.728;8.796;2023-09-07T09:00:22;30.90;57.60
3069;DHT22;1545;51.728;8.796;2023-09-07T09:02:48;31.10;55.50
3069;DHT22;1545;51.728;8.796;2023-09-07T09:05:15;31.00;57.20
3069;DHT22;1545;51.728;8.796;2023-09-07T09:07:43;30.90;56.80
3069;DHT22;1545;51.728;8.796;2023-09-07T09:10:09;31.10;56.50
3069;DHT22;1545;51.728;8.796;2023-09-07T09:12:35;30.90;57.60
3069;DHT22;1545;51.728;8.796;2023-09-07T09:15:00;31.00;57.10
3069;DHT22;1545;51.728;8.796;2023-09-07T09:17:29;31.10;57.10
3069;DHT22;1545;51.728;8.796;2023-09-07T09:19:55;30.90;56.30
3069;DHT22;1545;51.728;8.796;2023-09-07T09:22:21;30.40;57.90
3069;DHT22;1545;51.728;8.796;2023-09-07T09:24:49;30.40;57.60
3069;DHT22;1545;51.728;8.796;2023-09-07T09:27:15;30.20;57.00
3069;DHT22;1545;51.728;8.796;2023-09-07T09:29:40;29.80;57.60
3069;DHT22;1545;51.728;8.796;2023-09-07T09:32:07;29.40;58.80
3069;DHT22;1545;51.728;8.796;2023-09-07T09:34:37;29.30;59.40
3069;DHT22;1545;51.728;8.796;2023-09-07T09:37:03;29.20;60.50
3069;DHT22;1545;51.728;8.796;2023-09-07T09:39:29;29.10;61.70
3069;DHT22;1545;51.728;8.796;2023-09-07T09:41:55;28.90;61.70
3069;DHT22;1545;51.728;8.796;2023-09-07T09:44:22;27.90;63.20
3069;DHT22;1545;51.728;8.796;2023-09-07T09:46:54;27.10;65.70
3069;DHT22;1545;51.728;8.796;2023-09-07T09:49:21;26.60;66.70
3069;DHT22;1545;51.728;8.796;2023-09-07T09:51:51;26.10;68.10
3069;DHT22;1545;51.728;8.796;2023-09-07T09:54:17;26.00;68.80
3069;DHT22;1545;51.728;8.796;2023-09-07T09:56:44;26.00;69.80
3069;DHT22;1545;51.728;8.796;2023-09-07T09:59:11;26.00;68.90
3069;DHT22;1545;51.728;8.796;2023-09-07T10:01:48;25.90;69.30
3069;DHT22;1545;51.728;8.796;2023-09-07T10:04:17;25.90;70.90
3069;DHT22;1545;51.728;8.796;2023-09-07T10:06:56;25.90;70.10
3069;DHT22;1545;51.728;8.796;2023-09-07T10:09:29;25.90;69.00
3069;DHT22;1545;51.728;8.796;2023-09-07T10:11:58;26.00;68.70
3069;DHT22;1545;51.728;8.796;2023-09-07T10:14:25;26.10;69.70
3069;DHT22;1545;51.728;8.796;2023-09-07T10:16:53;26.20;69.80
3069;DHT22;1545;51.728;8.796;2023-09-07T10:19:25;26.30;69.60
3069;DHT22;1545;51.728;8.796;2023-09-07T10:21:54;26.30;68.80
3069;DHT22;1545;51.728;8.796;2023-09-07T10:24:26;26.30;68.60
3069;DHT22;1545;51.728;8.796;2023-09-07T10:27:07;26.30;67.70
3069;DHT22;1545;51.728;8.796;2023-09-07T10:29:44;26.40;69.80
3069;DHT22;1545;51.728;8.796;2023-09-07T10:32:11;26.50;68.00
3069;DHT22;1545;51.728;8.796;2023-09-07T10:34:39;26.50;67.90
3069;DHT22;1545;51.728;8.796;2023-09-07T10:37:05;26.50;67.10
3069;DHT22;1545;51.728;8.796;2023-09-07T10:39:33;26.50;67.90
3069;DHT22;1545;51.728;8.796;2023-09-07T10:41:59;26.60;69.10
3069;DHT22;1545;51.728;8.796;2023-09-07T10:44:28;26.70;67.90
3069;DHT22;1545;51.728;8.796;2023-09-07T10:46:55;26.80;65.90
3069;DHT22;1545;51.728;8.796;2023-09-07T10:49:21;26.90;65.80
3069;DHT22;1545;51.728;8.796;2023-09-07T10:51:48;26.90;66.10
3069;DHT22;1545;51.728;8.796;2023-09-07T10:54:17;27.00;65.40
3069;DHT22;1545;51.728;8.796;2023-09-07T10:56:44;27.00;65.60
3069;DHT22;1545;51.728;8.796;2023-09-07T10:59:11;27.10;64.50
3069;DHT22;1545;51.728;8.796;2023-09-07T11:01:37;27.20;63.90
3069;DHT22;1545;51.728;8.796;2023-09-07T11:04:03;27.30;63.00
3069;DHT22;1545;51.728;8.796;2023-09-07T11:06:30;27.30;62.30
3069;DHT22;1545;51.728;8.796;2023-09-07T11:08:59;27.30;61.70
3069;DHT22;1545;51.728;8.796;2023-09-07T11:11:25;27.30;61.70
3069;DHT22;1545;51.728;8.796;2023-09-07T11:13:51;27.40;62.00
3069;DHT22;1545;51.728;8.796;2023-09-07T11:16:17;27.50;63.30
3069;DHT22;1545;51.728;8.796;2023-09-07T11:18:42;27.60;62.80
3069;DHT22;1545;51.728;8.796;2023-09-07T11:21:10;27.60;62.40
3069;DHT22;1545;51.728;8.796;2023-09-07T11:23:35;27.60;63.10
3069;DHT22;1545;51.728;8.796;2023-09-07T11:26:04;27.60;64.50
3069;DHT22;1545;51.728;8.796;2023-09-07T11:28:31;27.80;64.40
3069;DHT22;1545;51.728;8.796;2023-09-07T11:30:58;27.80;63.60
3069;DHT22;1545;51.728;8.796;2023-09-07T11:33:24;27.90;62.20
3069;DHT22;1545;51.728;8.796;2023-09-07T11:35:50;27.90;61.60
3069;DHT22;1545;51.728;8.796;2023-09-07T11:38:17;27.80;61.60
3069;DHT22;1545;51.728;8.796;2023-09-07T11:40:43;28.00;63.20
3069;DHT22;1545;51.728;8.796;2023-09-07T11:43:15;28.10;61.60
3069;DHT22;1545;51.728;8.796;2023-09-07T11:45:43;28.00;63.50
3069;DHT22;1545;51.728;8.796;2023-09-07T11:48:09;28.00;61.30
3069;DHT22;1545;51.728;8.796;2023-09-07T11:50:35;28.10;63.80
3069;DHT22;1545;51.728;8.796;2023-09-07T11:53:01;28.00;62.10
3069;DHT22;1545;51.728;8.796;2023-09-07T11:55:26;28.00;61.50
3069;DHT22;1545;51.728;8.796;2023-09-07T11:57:52;27.90;60.90
3069;DHT22;1545;51.728;8.796;2023-09-07T12:00:18;28.00;62.40
3069;DHT22;1545;51.728;8.796;2023-09-07T12:02:44;28.20;62.50
3069;DHT22;1545;51.728;8.796;2023-09-07T12:05:09;28.10;62.50
3069;DHT22;1545;51.728;8.796;2023-09-07T12:07:36;28.00;63.30
3069;DHT22;1545;51.728;8.796;2023-09-07T12:10:02;28.00;63.40
3069;DHT22;1545;51.728;8.796;2023-09-07T12:12:28;28.10;61.20
3069;DHT22;1545;51.728;8.796;2023-09-07T12:14:53;28.00;63.40
3069;DHT22;1545;51.728;8.796;2023-09-07T12:17:21;28.00;62.80
3069;DHT22;1545;51.728;8.796;2023-09-07T12:19:47;28.10;61.90
3069;DHT22;1545;51.728;8.796;2023-09-07T12:22:13;28.00;63.60
3069;DHT22;1545;51.728;8.796;2023-09-07T12:24:38;28.10;63.50
3069;DHT22;1545;51.728;8.796;2023-09-07T12:27:04;28.10;63.40
3069;DHT22;1545;51.728;8.796;2023-09-07T12:29:29;28.00;62.50
3069;DHT22;1545;51.728;8.796;2023-09-07T12:31:55;28.20;63.10
3069;DHT22;1545;51.728;8.796;2023-09-07T12:34:21;28.40;63.10
3069;DHT22;1545;51.728;8.796;2023-09-07T12:36:46;28.30;63.00
3069;DHT22;1545;51.728;8.796;2023-09-07T12:39:12;28.50;62.60
3069;DHT22;1545;51.728;8.796;2023-09-07T12:41:38;28.60;63.90
3069;DHT22;1545;51.728;8.796;2023-09-07T12:44:04;28.70;62.80
3069;DHT22;1545;51.728;8.796;2023-09-07T12:46:31;28.70;63.70
3069;DHT22;1545;51.728;8.796;2023-09-07T12:48:57;28.80;62.10
3069;DHT22;1545;51.728;8.796;2023-09-07T12:51:22;28.90;62.90
3069;DHT22;1545;51.728;8.796;2023-09-07T12:53:48;28.70;62.70
3069;DHT22;1545;51.728;8.796;2023-09-07T12:56:14;28.70;63.20
3069;DHT22;1545;51.728;8.796;2023-09-07T12:58:44;28.70;63.20
3069;DHT22;1545;51.728;8.796;2023-09-07T13:01:09;28.60;64.70
3069;DHT22;1545;51.728;8.796;2023-09-07T13:03:35;28.70;63.70
3069;DHT22;1545;51.728;8.796;2023-09-07T13:06:01;28.30;63.20
3069;DHT22;1545;51.728;8.796;2023-09-07T13:08:28;28.30;66.10
3069;DHT22;1545;51.728;8.796;2023-09-07T13:10:55;28.30;64.20
3069;DHT22;1545;51.728;8.796;2023-09-07T13:13:20;28.50;66.90
3069;DHT22;1545;51.728;8.796;2023-09-07T13:15:48;28.70;66.10
3069;DHT22;1545;51.728;8.796;2023-09-07T13:18:14;28.70;63.10
3069;DHT22;1545;51.728;8.796;2023-09-07T13:20:39;28.70;64.30
3069;DHT22;1545;51.728;8.796;2023-09-07T13:23:05;28.60;63.20
3069;DHT22;1545;51.728;8.796;2023-09-07T13:25:31;28.60;63.20
3069;DHT22;1545;51.728;8.796;2023-09-07T13:27:56;28.60;62.70
3069;DHT22;1545;51.728;8.796;2023-09-07T13:30:22;28.60;63.10
3069;DHT22;1545;51.728;8.796;2023-09-07T13:32:48;28.70;62.50
3069;DHT22;1545;51.728;8.796;2023-09-07T13:35:15;28.50;61.50
3069;DHT22;1545;51.728;8.796;2023-09-07T13:37:40;28.60;62.30
3069;DHT22;1545;51.728;8.796;2023-09-07T13:40:07;28.70;60.40
3069;DHT22;1545;51.728;8.796;2023-09-07T13:42:33;28.80;63.00
3069;DHT22;1545;51.728;8.796;2023-09-07T13:44:58;28.80;61.70
3069;DHT22;1545;51.728;8.796;2023-09-07T13:47:24;28.90;61.70
3069;DHT22;1545;51.728;8.796;2023-09-07T13:49:50;29.00;62.40
3069;DHT22;1545;51.728;8.796;2023-09-07T13:52:15;29.00;59.60
3069;DHT22;1545;51.728;8.796;2023-09-07T13:54:41;28.80;60.90
3069;DHT22;1545;51.728;8.796;2023-09-07T13:57:06;28.90;61.40
3069;DHT22;1545;51.728;8.796;2023-09-07T13:59:34;28.80;59.90
3069;DHT22;1545;51.728;8.796;2023-09-07T14:02:00;29.00;60.60
3069;DHT22;1545;51.728;8.796;2023-09-07T14:04:26;29.10;60.40
3069;DHT22;1545;51.728;8.796;2023-09-07T14:06:52;29.10;59.30
3069;DHT22;1545;51.728;8.796;2023-09-07T14:09:18;29.10;60.30
3069;DHT22;1545;51.728;8.796;2023-09-07T14:11:44;29.20;58.20
3069;DHT22;1545;51.728;8.796;2023-09-07T14:14:10;29.20;59.90
3069;DHT22;1545;51.728;8.796;2023-09-07T14:16:36;29.10;57.50
3069;DHT22;1545;51.728;8.796;2023-09-07T14:19:01;29.20;57.90
3069;DHT22;1545;51.728;8.796;2023-09-07T14:21:27;29.20;58.50
3069;DHT22;1545;51.728;8.796;2023-09-07T14:23:52;29.20;57.30
3069;DHT22;1545;51.728;8.796;2023-09-07T14:26:18;29.10;58.50
3069;DHT22;1545;51.728;8.796;2023-09-07T14:28:43;29.10;57.10
3069;DHT22;1545;51.728;8.796;2023-09-07T14:31:09;29.10;57.70
3069;DHT22;1545;51.728;8.796;2023-09-07T14:33:35;29.10;58.50
3069;DHT22;1545;51.728;8.796;2023-09-07T14:36:05;29.20;57.70
3069;DHT22;1545;51.728;8.796;2023-09-07T14:38:31;29.10;58.60
3069;DHT22;1545;51.728;8.796;2023-09-07T14:41:00;29.30;58.90
3069;DHT22;1545;51.728;8.796;2023-09-07T14:43:25;29.20;56.60
3069;DHT22;1545;51.728;8.796;2023-09-07T14:45:51;29.20;57.30
3069;DHT22;1545;51.728;8.796;2023-09-07T14:48:17;29.20;59.00
3069;DHT22;1545;51.728;8.796;2023-09-07T14:50:42;29.10;61.60
3069;DHT22;1545;51.728;8.796;2023-09-07T14:53:08;29.20;61.80
3069;DHT22;1545;51.728;8.796;2023-09-07T14:55:34;29.20;60.90
3069;DHT22;1545;51.728;8.796;2023-09-07T14:57:59;29.20;58.10
3069;DHT22;1545;51.728;8.796;2023-09-07T15:00:25;29.30;57.20
3069;DHT22;1545;51.728;8.796;2023-09-07T15:02:52;29.20;56.90
3069;DHT22;1545;51.728;8.796;2023-09-07T15:05:18;29.20;57.30
3069;DHT22;1545;51.728;8.796;2023-09-07T15:07:44;29.20;58.50
3069;DHT22;1545;51.728;8.796;2023-09-07T15:10:09;29.20;60.70
3069;DHT22;1545;51.728;8.796;2023-09-07T15:12:35;29.20;62.30
3069;DHT22;1545;51.728;8.796;2023-09-07T15:15:01;29.30;60.60
3069;DHT22;1545;51.728;8.796;2023-09-07T15:17:27;29.10;62.00
3069;DHT22;1545;51.728;8.796;2023-09-07T15:19:52;29.00;61.40
3069;DHT22;1545;51.728;8.796;2023-09-07T15:22:18;28.90;61.00
3069;DHT22;1545;51.728;8.796;2023-09-07T15:24:43;29.10;60.30
3069;DHT22;1545;51.728;8.796;2023-09-07T15:27:10;29.00;60.90
3069;DHT22;1545;51.728;8.796;2023-09-07T15:29:36;29.10;62.10
3069;DHT22;1545;51.728;8.796;2023-09-07T15:32:03;29.00;61.00
3069;DHT22;1545;51.728;8.796;2023-09-07T15:34:29;29.00;60.10
3069;DHT22;1545;51.728;8.796;2023-09-07T15:36:54;28.90;59.20
3069;DHT22;1545;51.728;8.796;2023-09-07T15:39:20;29.00;59.90
3069;DHT22;1545;51.728;8.796;2023-09-07T15:41:46;28.90;62.20
3069;DHT22;1545;51.728;8.796;2023-09-07T15:44:11;28.90;62.40
3069;DHT22;1545;51.728;8.796;2023-09-07T15:46:37;28.90;60.00
3069;DHT22;1545;51.728;8.796;2023-09-07T15:49:03;28.90;62.10
3069;DHT22;1545;51.728;8.796;2023-09-07T15:51:29;28.90;62.50
3069;DHT22;1545;51.728;8.796;2023-09-07T15:53:54;29.00;61.60
3069;DHT22;1545;51.728;8.796;2023-09-07T15:56:20;29.10;60.90